This is the latest recevied weather packets stored in our database for station/object OK1KZE-6. If no packets are shown the sender has not sent any weather packets the latest 10 day(s).
| Time | Temp. | Humidity | Pressure | Rain* | Wind** | Luminosity | Snow |
|---|---|---|---|---|---|---|---|
| 1777901709 | 22.22° C | 41% | 1015.4 hPa | - | - | - | - |
| 1777901409 | 21.67° C | 42% | 1015.5 hPa | - | - | - | - |
| 1777901107 | 21.11° C | 42% | 1015.7 hPa | - | - | - | - |
| 1777900808 | 21.67° C | 43% | 1015.6 hPa | - | - | - | - |
| 1777900508 | 21.67° C | 42% | 1015.7 hPa | - | - | - | - |
| 1777900208 | 21.67° C | 42% | 1015.8 hPa | - | - | - | - |
| 1777899908 | 21.11° C | 42% | 1015.6 hPa | - | - | - | - |
| 1777899308 | 21.11° C | 43% | 1015.9 hPa | - | - | - | - |
| 1777899007 | 21.11° C | 43% | 1016.1 hPa | - | - | - | - |
| 1777898707 | 21.11° C | 43% | 1015.9 hPa | - | - | - | - |
| 1777898408 | 21.11° C | 44% | 1016 hPa | - | - | - | - |
| 1777898108 | 20.56° C | 43% | 1016 hPa | - | - | - | - |
| 1777897808 | -1.11° C | 100% | 1015.9 hPa | - | - | - | - |
| 1777897208 | -1.11° C | 100% | 1016 hPa | - | - | - | - |
| 1777896908 | -1.11° C | 100% | 1016.1 hPa | - | - | - | - |
| 1777896608 | -1.11° C | 100% | 1016.2 hPa | - | - | - | - |
| 1777896309 | -1.11° C | 100% | 1016.2 hPa | - | - | - | - |
| 1777896008 | 21.11° C | 43% | 1016.2 hPa | - | - | - | - |
| 1777895708 | 21.11° C | 43% | 1016.2 hPa | - | - | - | - |
| 1777895407 | 21.11° C | 42% | 1016.3 hPa | - | - | - | - |
| 1777895107 | 20.56° C | 43% | 1016.1 hPa | - | - | - | - |
| 1777894808 | 20.56° C | 43% | 1016.1 hPa | - | - | - | - |
| 1777894508 | 20.56° C | 42% | 1016.4 hPa | - | - | - | - |
| 1777894207 | -1.11° C | 100% | 1016.5 hPa | - | - | - | - |
| 1777893908 | -1.11° C | 100% | 1016.4 hPa | - | - | - | - |
* Rain since midnight (hover to see other rain measurements)
** Current wind speed in m/s (hover to see current wind gust speed)